createdAt,value
2023-03-14T00:00:03.719Z,23.78
2023-03-14T00:04:03.799Z,23.80
2023-03-14T00:08:03.917Z,23.85
2023-03-14T00:12:03.994Z,23.82
2023-03-14T00:16:04.095Z,23.82
2023-03-14T00:20:04.102Z,23.81
2023-03-14T00:24:04.686Z,23.84
2023-03-14T00:28:04.369Z,23.88
2023-03-14T00:32:04.255Z,23.87
2023-03-14T00:36:04.620Z,23.88
2023-03-14T00:40:04.747Z,23.90
2023-03-14T00:44:04.434Z,23.93
2023-03-14T00:48:04.241Z,23.89
2023-03-14T00:52:04.619Z,23.96
2023-03-14T00:56:04.656Z,23.90
2023-03-14T01:00:04.535Z,23.97
2023-03-14T01:04:04.263Z,23.96
2023-03-14T01:08:04.270Z,23.97
2023-03-14T01:12:04.202Z,23.94
2023-03-14T01:16:04.205Z,24.00
2023-03-14T01:20:04.310Z,24.00
2023-03-14T01:24:04.335Z,23.97
2023-03-14T01:28:04.505Z,23.97
2023-03-14T01:32:04.181Z,23.98
2023-03-14T01:36:04.346Z,24.00
2023-03-14T01:40:04.132Z,23.97
2023-03-14T01:44:04.245Z,24.02
2023-03-14T01:48:04.222Z,24.04
2023-03-14T01:52:04.196Z,24.05
2023-03-14T01:56:04.418Z,24.03
2023-03-14T02:00:04.656Z,24.03
2023-03-14T02:04:04.370Z,24.08
2023-03-14T02:08:04.376Z,24.05
2023-03-14T02:12:04.332Z,24.08
2023-03-14T02:16:04.403Z,24.08
2023-03-14T02:20:04.426Z,24.08
2023-03-14T02:24:04.412Z,24.05
2023-03-14T02:28:04.425Z,24.09
2023-03-14T02:32:05.206Z,24.09
2023-03-14T02:36:04.965Z,24.10
2023-03-14T02:40:04.619Z,24.13
2023-03-14T02:44:04.671Z,24.13
2023-03-14T02:48:04.674Z,24.12
2023-03-14T02:52:04.685Z,24.17
2023-03-14T02:56:04.976Z,24.19
2023-03-14T03:00:06.732Z,24.20
2023-03-14T03:04:04.954Z,24.19
2023-03-14T03:08:04.917Z,24.27
2023-03-14T03:12:05.558Z,24.21
2023-03-14T03:16:05.424Z,24.24
2023-03-14T03:20:05.168Z,24.23
2023-03-14T03:24:05.202Z,24.25
2023-03-14T03:28:06.423Z,24.24
2023-03-14T03:32:05.483Z,24.30
2023-03-14T03:36:05.439Z,24.25
2023-03-14T03:40:05.509Z,24.25
2023-03-14T03:44:05.614Z,24.33
2023-03-14T03:48:05.687Z,24.28
2023-03-14T03:52:06.332Z,24.32
2023-03-14T03:56:06.265Z,24.33
2023-03-14T04:00:06.382Z,24.32
2023-03-14T04:04:06.543Z,24.33
2023-03-14T04:08:06.149Z,24.35
2023-03-14T04:12:06.216Z,24.39
2023-03-14T04:16:06.415Z,24.36
2023-03-14T04:20:06.400Z,24.35
2023-03-14T04:24:07.120Z,24.37
2023-03-14T04:28:06.586Z,24.43
2023-03-14T04:32:07.211Z,24.37
2023-03-14T04:36:07.135Z,24.47
2023-03-14T04:40:07.039Z,24.40
2023-03-14T04:44:07.615Z,24.41
2023-03-14T04:48:07.532Z,24.43
2023-03-14T04:52:07.476Z,24.48
2023-03-14T04:56:07.615Z,24.41
2023-03-14T05:00:07.702Z,24.47
2023-03-14T05:04:07.823Z,24.87
2023-03-14T05:08:07.809Z,25.39
2023-03-14T05:12:07.875Z,26.02
2023-03-14T05:16:08.412Z,26.46
2023-03-14T05:20:07.943Z,26.64
2023-03-14T05:24:08.021Z,26.68
2023-03-14T05:28:09.024Z,26.71
2023-03-14T05:32:07.930Z,26.26
2023-03-14T05:36:08.306Z,25.90
2023-03-14T05:40:08.409Z,25.59
2023-03-14T05:44:08.548Z,25.40
2023-03-14T05:48:09.176Z,25.31
2023-03-14T05:52:09.512Z,25.17
2023-03-14T05:56:09.137Z,25.16
2023-03-14T06:00:09.218Z,25.14
2023-03-14T06:04:09.795Z,25.09
2023-03-14T06:08:10.147Z,25.08
2023-03-14T06:12:10.239Z,25.05
2023-03-14T06:16:10.441Z,25.06
2023-03-14T06:20:10.459Z,25.08
2023-03-14T06:24:10.465Z,25.05
2023-03-14T06:28:10.650Z,25.06
2023-03-14T06:32:10.937Z,25.69
2023-03-14T06:36:11.220Z,26.85
2023-03-14T06:40:11.910Z,27.53
2023-03-14T06:44:11.479Z,28.48
2023-03-14T06:48:11.439Z,29.51
2023-03-14T06:52:12.362Z,29.72
2023-03-14T06:56:11.592Z,30.15
2023-03-14T07:00:11.684Z,30.33
2023-03-14T07:04:11.954Z,30.10
2023-03-14T07:08:12.101Z,29.73
2023-03-14T07:12:12.412Z,29.41
2023-03-14T07:16:12.612Z,29.05
2023-03-14T07:20:12.448Z,28.75
2023-03-14T07:24:13.020Z,28.66
2023-03-14T07:28:12.768Z,28.55
2023-03-14T07:32:12.465Z,28.34
2023-03-14T07:36:12.938Z,28.37
2023-03-14T07:40:12.923Z,28.05
2023-03-14T07:44:12.908Z,27.75
2023-03-14T07:48:13.296Z,27.83
2023-03-14T07:52:12.979Z,28.02
2023-03-14T07:56:12.916Z,28.37
2023-03-14T08:00:15.804Z,28.51
2023-03-14T08:04:13.110Z,28.68
2023-03-14T08:08:13.074Z,28.58
2023-03-14T08:12:12.738Z,27.99
2023-03-14T08:16:13.199Z,27.36
2023-03-14T08:20:13.309Z,27.04
2023-03-14T08:24:12.675Z,27.11
2023-03-14T08:28:12.966Z,27.70
2023-03-14T08:32:12.998Z,28.13
2023-03-14T08:36:12.528Z,28.94
2023-03-14T08:40:12.865Z,29.80
2023-03-14T08:44:12.846Z,29.89
2023-03-14T08:48:12.833Z,30.26
2023-03-14T08:52:12.395Z,30.20
2023-03-14T08:56:12.388Z,30.24
2023-03-14T09:00:13.390Z,30.43
2023-03-14T09:04:12.512Z,30.20
2023-03-14T09:08:12.371Z,29.99
2023-03-14T09:12:12.429Z,29.91
2023-03-14T09:16:12.242Z,29.91
2023-03-14T09:20:12.191Z,29.93
2023-03-14T09:24:12.118Z,30.01
2023-03-14T09:28:12.144Z,28.63
2023-03-14T09:32:12.209Z,27.70
2023-03-14T09:36:13.365Z,27.31
2023-03-14T09:40:12.672Z,27.79
2023-03-14T09:44:12.881Z,28.62
2023-03-14T09:48:12.584Z,28.46
2023-03-14T09:52:12.561Z,28.49
2023-03-14T09:56:12.471Z,28.37
2023-03-14T10:00:12.384Z,28.10
2023-03-14T10:04:12.441Z,28.23
2023-03-14T10:08:12.782Z,28.27
2023-03-14T10:12:12.665Z,28.26
2023-03-14T10:16:12.920Z,28.21
2023-03-14T10:20:12.312Z,28.17
2023-03-14T10:24:12.249Z,28.19
2023-03-14T10:28:12.126Z,28.10
2023-03-14T10:32:13.514Z,28.11
2023-03-14T10:36:14.754Z,28.08
2023-03-14T10:40:12.105Z,28.10
2023-03-14T10:44:13.263Z,28.18
2023-03-14T10:48:12.007Z,28.11
2023-03-14T10:52:11.982Z,28.22
2023-03-14T10:56:11.918Z,28.13
2023-03-14T11:00:12.357Z,28.09
2023-03-14T11:04:11.804Z,27.97
2023-03-14T11:08:11.783Z,27.83
2023-03-14T11:12:11.921Z,27.78
2023-03-14T11:16:11.906Z,27.86
2023-03-14T11:20:11.816Z,28.03
2023-03-14T11:24:11.781Z,28.06
2023-03-14T11:28:11.779Z,27.29
2023-03-14T11:32:11.769Z,27.45
2023-03-14T11:36:11.712Z,28.02
2023-03-14T11:40:11.682Z,28.27
2023-03-14T11:44:13.247Z,28.27
2023-03-14T11:48:11.652Z,28.17
2023-03-14T11:52:11.527Z,28.02
2023-03-14T11:56:11.474Z,27.88
2023-03-14T12:00:11.777Z,27.91
2023-03-14T12:04:11.530Z,27.72
2023-03-14T12:08:11.638Z,27.69
2023-03-14T12:12:11.767Z,27.76
2023-03-14T12:16:11.878Z,28.21
2023-03-14T12:20:11.803Z,26.75
2023-03-14T12:24:11.971Z,26.56
2023-03-14T12:28:11.995Z,26.12
2023-03-14T12:32:12.095Z,25.99
2023-03-14T12:36:12.731Z,25.77
2023-03-14T12:40:12.602Z,25.75
2023-03-14T12:44:12.612Z,25.19
2023-03-14T12:48:12.773Z,25.27
2023-03-14T12:52:12.687Z,25.42
2023-03-14T12:56:12.798Z,25.41
2023-03-14T13:00:12.900Z,25.05
2023-03-14T13:04:13.192Z,25.85
2023-03-14T13:08:13.780Z,27.00
2023-03-14T13:12:13.525Z,27.50
2023-03-14T13:16:13.476Z,28.46
2023-03-14T13:20:13.982Z,29.23
2023-03-14T13:24:13.882Z,29.10
2023-03-14T13:31:05.200Z,29.17
2023-03-14T13:35:05.175Z,28.83
2023-03-14T13:39:05.131Z,29.01
2023-03-14T13:43:05.098Z,28.86
2023-03-14T13:47:05.091Z,29.00
2023-03-14T13:51:05.072Z,28.89
2023-03-14T13:55:05.016Z,28.52
2023-03-14T13:59:04.986Z,28.40
2023-03-14T14:03:05.050Z,28.27
2023-03-14T14:07:04.889Z,28.24
2023-03-14T14:11:04.917Z,28.20
2023-03-14T14:15:04.866Z,28.21
2023-03-14T14:19:06.010Z,28.45
2023-03-14T14:23:05.544Z,28.72
2023-03-14T14:27:04.918Z,29.05
2023-03-14T14:31:05.228Z,29.31
2023-03-14T14:35:05.272Z,29.49
2023-03-14T14:39:05.407Z,29.76
2023-03-14T14:43:05.603Z,30.08
2023-03-14T14:47:05.929Z,29.57
2023-03-14T14:51:05.706Z,29.56
2023-03-14T14:55:05.959Z,29.34
2023-03-14T14:59:06.075Z,29.20
2023-03-14T15:03:06.334Z,29.29
2023-03-14T15:07:06.435Z,29.23
2023-03-14T15:11:06.751Z,29.04
2023-03-14T15:15:06.708Z,29.11
2023-03-14T15:19:21.491Z,28.67
2023-03-14T15:23:08.071Z,28.30
2023-03-14T15:27:07.822Z,28.03
2023-03-14T15:31:07.101Z,27.80
2023-03-14T15:35:07.050Z,27.71
2023-03-14T15:39:08.548Z,27.61
2023-03-14T15:43:06.727Z,27.53
2023-03-14T15:47:06.667Z,27.52
2023-03-14T15:51:06.615Z,27.50
2023-03-14T15:55:07.926Z,27.46
2023-03-14T15:59:07.026Z,27.44
2023-03-14T16:03:06.706Z,27.40
2023-03-14T16:07:06.638Z,27.40
2023-03-14T16:11:06.592Z,27.40
2023-03-14T16:15:06.574Z,27.39
2023-03-14T16:19:06.511Z,27.36
2023-03-14T16:23:06.473Z,27.36
2023-03-14T16:27:08.456Z,27.34
2023-03-14T16:31:07.209Z,27.36
2023-03-14T16:35:07.129Z,27.34
2023-03-14T16:39:06.657Z,27.35
2023-03-14T16:43:21.277Z,27.39
2023-03-14T16:47:10.888Z,27.34
2023-03-14T16:51:06.799Z,27.31
2023-03-14T16:55:07.797Z,27.30
2023-03-14T16:59:06.969Z,27.31
2023-03-14T17:03:06.811Z,27.28
2023-03-14T17:07:06.730Z,27.32
2023-03-14T17:11:06.895Z,27.24
2023-03-14T17:15:06.610Z,27.28
2023-03-14T17:19:07.365Z,27.22
2023-03-14T17:23:06.963Z,27.28
2023-03-14T17:27:07.012Z,27.33
2023-03-14T17:31:07.149Z,27.27
2023-03-14T17:35:07.543Z,27.21
2023-03-14T17:39:07.474Z,27.20
2023-03-14T17:43:07.500Z,27.17
2023-03-14T17:47:07.643Z,27.17
2023-03-14T17:51:08.862Z,27.14
2023-03-14T17:55:07.978Z,27.11
2023-03-14T17:59:08.220Z,27.07
2023-03-14T18:03:08.469Z,27.07
2023-03-14T18:07:08.472Z,27.09
2023-03-14T18:11:09.019Z,27.07
2023-03-14T18:15:09.058Z,27.08
2023-03-14T18:19:08.964Z,27.03
2023-03-14T18:23:09.400Z,27.05
2023-03-14T18:27:09.674Z,27.02
2023-03-14T18:31:09.927Z,26.94
2023-03-14T18:35:09.808Z,27.08
2023-03-14T18:39:09.920Z,27.03
2023-03-14T18:43:09.972Z,27.16
2023-03-14T18:47:10.193Z,27.21
2023-03-14T18:51:10.161Z,27.32
2023-03-14T18:55:10.071Z,27.28
2023-03-14T18:59:10.066Z,27.33
2023-03-14T19:03:10.078Z,27.32
2023-03-14T19:07:09.989Z,27.29
2023-03-14T19:11:09.930Z,27.05
2023-03-14T19:15:09.853Z,26.73
2023-03-14T19:19:09.896Z,26.56
2023-03-14T19:23:09.810Z,26.43
2023-03-14T19:27:09.813Z,26.28
2023-03-14T19:31:09.732Z,26.22
2023-03-14T19:35:09.808Z,26.23
2023-03-14T19:39:09.768Z,26.23
2023-03-14T19:43:10.015Z,26.19
2023-03-14T19:47:10.146Z,26.18
2023-03-14T19:51:10.292Z,26.23
2023-03-14T19:55:10.476Z,26.23
2023-03-14T19:59:10.681Z,26.30
2023-03-14T20:03:10.832Z,26.30
2023-03-14T20:07:10.844Z,26.33
2023-03-14T20:11:10.945Z,26.30
2023-03-14T20:15:11.018Z,26.30
2023-03-14T20:19:11.136Z,26.34
2023-03-14T20:23:11.202Z,26.34
2023-03-14T20:27:11.238Z,26.33
2023-03-14T20:31:11.667Z,26.35
2023-03-14T20:35:11.631Z,26.37
2023-03-14T20:39:11.603Z,26.27
2023-03-14T20:43:11.417Z,26.30
2023-03-14T20:47:11.636Z,26.35
2023-03-14T20:51:11.615Z,26.31
2023-03-14T20:55:11.479Z,26.33
2023-03-14T20:59:11.379Z,26.32
2023-03-14T21:03:11.281Z,26.34
2023-03-14T21:07:11.614Z,26.31
2023-03-14T21:11:11.601Z,26.36
2023-03-14T21:15:11.322Z,26.35
2023-03-14T21:19:11.682Z,26.38
2023-03-14T21:23:11.574Z,26.45
2023-03-14T21:27:11.381Z,26.35
2023-03-14T21:31:11.340Z,26.38
2023-03-14T21:35:11.637Z,26.40
2023-03-14T21:39:11.692Z,26.40
2023-03-14T21:43:11.452Z,26.42
2023-03-14T21:47:11.395Z,26.40
2023-03-14T21:51:11.674Z,26.42
2023-03-14T21:55:11.467Z,26.40
2023-03-14T21:59:11.503Z,26.45
2023-03-14T22:03:13.477Z,26.45
2023-03-14T22:07:11.636Z,26.47
2023-03-14T22:11:11.691Z,26.47
2023-03-14T22:15:11.706Z,26.45
2023-03-14T22:19:12.003Z,26.52
2023-03-14T22:23:11.730Z,26.48
2023-03-14T22:27:13.255Z,26.47
2023-03-14T22:31:11.845Z,26.52
2023-03-14T22:35:11.833Z,26.52
2023-03-14T22:39:12.310Z,26.53
2023-03-14T22:43:12.001Z,26.57
2023-03-14T22:47:12.233Z,26.51
2023-03-14T22:51:12.132Z,26.53
2023-03-14T22:55:12.128Z,26.56
2023-03-14T22:59:14.786Z,26.53
2023-03-14T23:03:12.421Z,26.55
2023-03-14T23:07:12.362Z,26.55
2023-03-14T23:11:12.073Z,26.56
2023-03-14T23:15:12.211Z,26.59
2023-03-14T23:19:12.412Z,26.60
2023-03-14T23:23:12.017Z,26.63
2023-03-14T23:27:11.886Z,26.62
2023-03-14T23:31:12.350Z,26.62
2023-03-14T23:35:11.876Z,26.59
2023-03-14T23:39:12.181Z,26.57
2023-03-14T23:43:12.153Z,26.66
2023-03-14T23:47:11.954Z,26.63
2023-03-14T23:51:11.928Z,26.64
2023-03-14T23:55:11.837Z,26.63
2023-03-14T23:59:11.588Z,26.64
